Time;durP1;ratioP1;P1;durP2;ratioP2;P2;SDS_P1;SDS_P2;PMS_P1;PMS_P2;Temp;Humidity;BMP_temperature;BMP_pressure;BME280_temperature;BME280_humidity;BME280_pressure;Samples;Min_cycle;Max_cycle;Signal;HPM_P1;HPM_P2
2024/01/02 00:00:53;;;;;;;1.70;0.50;;;;;;;7.38;95.98;100207.91;5074353;28;21071;-72
2024/01/02 00:03:19;;;;;;;2.10;0.60;;;;;;;7.44;94.37;100214.84;5074560;28;20442;-74
2024/01/02 00:05:46;;;;;;;1.80;0.57;;;;;;;7.43;94.17;100215.91;5074171;28;20488;-74
2024/01/02 00:08:12;;;;;;;2.83;0.60;;;;;;;7.42;94.11;100215.09;5074569;28;20873;-74
2024/01/02 00:10:39;;;;;;;1.90;0.77;;;;;;;7.35;94.61;100203.91;5075048;28;20480;-74
2024/01/02 00:13:07;;;;;;;2.10;0.60;;;;;;;7.34;94.69;100208.47;5074416;28;20921;-74
2024/01/02 00:15:34;;;;;;;1.90;0.77;;;;;;;7.37;94.40;100211.69;5074700;28;20493;-75
2024/01/02 00:18:00;;;;;;;1.70;0.50;;;;;;;7.41;93.70;100208.13;5074536;28;20469;-74
2024/01/02 00:20:29;;;;;;;3.87;0.93;;;;;;;7.41;93.43;100200.03;5074073;28;20568;-74
2024/01/02 00:22:55;;;;;;;1.70;0.53;;;;;;;7.39;93.32;100201.41;5074028;28;20952;-74
2024/01/02 00:25:22;;;;;;;1.80;0.50;;;;;;;7.45;93.33;100197.56;5074144;28;20548;-74
2024/01/02 00:27:49;;;;;;;1.70;0.43;;;;;;;7.43;93.22;100200.53;5074522;28;20473;-73
2024/01/02 00:30:17;;;;;;;7.13;1.27;;;;;;;7.44;91.90;100204.84;5074013;28;20476;-72
2024/01/02 00:32:44;;;;;;;1.63;0.43;;;;;;;7.41;92.71;100199.25;5074381;28;20441;-73
2024/01/02 00:35:11;;;;;;;1.70;0.40;;;;;;;7.32;94.04;100194.50;5073897;28;20460;-73
2024/01/02 00:37:37;;;;;;;2.67;0.60;;;;;;;7.29;94.32;100194.25;5073982;28;20442;-73
2024/01/02 00:40:05;;;;;;;1.70;0.50;;;;;;;7.25;94.88;100191.34;5073990;28;20513;-75
2024/01/02 00:42:31;;;;;;;11.70;1.50;;;;;;;7.30;93.99;100194.00;5074035;28;20448;-74
2024/01/02 00:44:59;;;;;;;1.90;0.60;;;;;;;7.29;94.61;100189.66;5074342;28;20457;-74
2024/01/02 00:47:27;;;;;;;1.83;0.60;;;;;;;7.28;94.58;100181.88;5073862;28;20921;-74
2024/01/02 00:49:54;;;;;;;2.43;0.80;;;;;;;7.27;94.57;100181.09;5073817;28;20438;-74
2024/01/02 00:52:20;;;;;;;1.77;0.60;;;;;;;7.25;94.82;100185.16;5073793;28;20467;-74
2024/01/02 00:54:47;;;;;;;1.70;0.43;;;;;;;7.25;95.54;100179.75;5073327;28;21038;-73
2024/01/02 00:57:13;;;;;;;1.60;0.40;;;;;;;7.27;95.23;100169.53;5073649;28;20476;-73
2024/01/02 00:59:40;;;;;;;2.30;0.50;;;;;;;7.20;96.65;100169.84;5073008;28;20503;-73
2024/01/02 01:02:07;;;;;;;1.60;0.40;;;;;;;7.21;96.73;100168.75;5073683;28;20517;-73
2024/01/02 01:04:35;;;;;;;1.60;0.40;;;;;;;7.21;96.26;100159.88;5072860;28;20526;-73
2024/01/02 01:07:01;;;;;;;1.87;0.50;;;;;;;7.20;96.32;100169.06;5073591;28;20536;-73
2024/01/02 01:09:28;;;;;;;1.80;0.50;;;;;;;7.17;96.61;100165.06;5073747;28;20527;-74
2024/01/02 01:11:54;;;;;;;1.80;0.50;;;;;;;7.16;96.03;100162.63;5074422;28;20434;-73
2024/01/02 01:14:21;;;;;;;1.80;0.60;;;;;;;7.13;96.75;100163.22;5073374;28;20586;-73
2024/01/02 01:16:47;;;;;;;3.13;0.90;;;;;;;7.11;96.78;100155.44;5073811;28;20528;-73
2024/01/02 01:19:14;;;;;;;2.07;0.60;;;;;;;7.07;97.14;100154.41;5073515;28;20517;-73
2024/01/02 01:21:42;;;;;;;1.80;0.60;;;;;;;7.06;97.43;100160.88;5073801;28;20477;-73
2024/01/02 01:24:08;;;;;;;1.97;0.50;;;;;;;7.05;96.79;100153.91;5073078;28;20468;-73
2024/01/02 01:26:35;;;;;;;1.70;0.57;;;;;;;6.98;97.07;100150.75;5073494;28;20441;-73
2024/01/02 01:29:02;;;;;;;1.80;0.53;;;;;;;6.93;97.53;100142.72;5073313;28;20437;-73
2024/01/02 01:31:29;;;;;;;1.90;0.50;;;;;;;6.89;97.73;100141.69;5073332;28;20441;-73
2024/01/02 01:33:56;;;;;;;1.60;0.40;;;;;;;6.85;97.71;100148.75;5073224;28;20540;-73
2024/01/02 01:36:23;;;;;;;2.47;0.50;;;;;;;6.81;97.50;100135.84;5073260;28;20442;-73
2024/01/02 01:38:51;;;;;;;3.70;0.87;;;;;;;6.74;97.79;100143.47;5072935;28;20441;-73
2024/01/02 01:41:19;;;;;;;1.60;0.40;;;;;;;6.69;97.68;100140.06;5073142;28;20481;-73
2024/01/02 01:43:47;;;;;;;1.67;0.40;;;;;;;6.61;97.98;100152.22;5073131;28;20529;-73
2024/01/02 01:46:16;;;;;;;1.70;0.50;;;;;;;6.53;98.03;100150.16;5073169;28;20520;-73
2024/01/02 01:48:44;;;;;;;1.60;0.40;;;;;;;6.47;97.59;100149.41;5073483;28;20629;-73
2024/01/02 01:51:10;;;;;;;1.97;0.50;;;;;;;6.49;97.64;100149.13;5073450;28;21024;-73
2024/01/02 01:53:38;;;;;;;1.60;0.37;;;;;;;6.48;97.82;100150.22;5073784;28;20952;-73
2024/01/02 01:56:07;;;;;;;3.63;0.70;;;;;;;6.48;97.77;100144.84;5073736;28;20521;-73
2024/01/02 01:58:34;;;;;;;1.90;0.53;;;;;;;6.45;98.06;100148.09;5073217;28;20506;-73
2024/01/02 02:01:01;;;;;;;1.70;0.50;;;;;;;6.42;98.01;100149.47;5073803;28;20500;-73
2024/01/02 02:03:28;;;;;;;1.53;0.30;;;;;;;6.44;97.82;100141.09;5073198;28;20997;-73
2024/01/02 02:05:55;;;;;;;1.70;0.50;;;;;;;6.40;97.76;100148.13;5072862;28;20465;-73
2024/01/02 02:08:22;;;;;;;2.00;0.60;;;;;;;6.38;97.92;100142.25;5073054;28;20437;-73
2024/01/02 02:10:49;;;;;;;2.73;0.60;;;;;;;6.32;98.46;100144.97;5072969;28;20532;-73
2024/01/02 02:13:17;;;;;;;1.60;0.40;;;;;;;6.33;97.87;100145.78;5072977;28;20524;-74
2024/01/02 02:15:44;;;;;;;1.90;0.50;;;;;;;6.26;98.33;100143.41;5074110;28;20461;-75
2024/01/02 02:18:11;;;;;;;1.90;0.60;;;;;;;6.23;98.22;100146.66;5076668;28;20448;-71
2024/01/02 02:20:37;;;;;;;1.90;0.53;;;;;;;6.18;97.93;100138.66;5076415;28;20571;-71
2024/01/02 02:23:05;;;;;;;3.00;0.63;;;;;;;6.14;98.98;100139.50;5076494;28;20444;-72
2024/01/02 02:25:32;;;;;;;1.60;0.40;;;;;;;6.12;98.83;100139.78;5076819;28;20464;-73
2024/01/02 02:27:59;;;;;;;1.80;0.60;;;;;;;6.08;98.57;100141.44;5076024;28;20437;-73
2024/01/02 02:30:25;;;;;;;1.53;0.30;;;;;;;6.02;98.78;100134.47;5076658;28;20443;-73
2024/01/02 02:32:52;;;;;;;1.70;0.50;;;;;;;5.99;98.84;100137.75;5076338;28;20524;-73
2024/01/02 02:35:19;;;;;;;4.53;1.20;;;;;;;5.94;99.41;100122.47;5076302;28;20781;-73
2024/01/02 02:37:45;;;;;;;1.60;0.40;;;;;;;5.90;100.00;100124.06;5076577;28;20445;-74
2024/01/02 02:40:14;;;;;;;1.80;0.60;;;;;;;5.85;100.00;100117.94;5076205;28;20468;-73
2024/01/02 02:42:40;;;;;;;1.60;0.40;;;;;;;5.79;100.00;100109.09;5076428;28;20445;-73
2024/01/02 02:45:08;;;;;;;2.00;0.73;;;;;;;5.81;100.00;100109.63;5075692;28;21019;-73
2024/01/02 02:47:35;;;;;;;2.27;0.80;;;;;;;5.81;100.00;100107.75;5076348;28;20450;-73
2024/01/02 02:50:01;;;;;;;2.20;0.60;;;;;;;5.77;100.00;100105.91;5075695;28;20443;-74
2024/01/02 02:52:28;;;;;;;1.80;0.50;;;;;;;5.75;100.00;100092.72;5076589;28;20516;-74
2024/01/02 02:54:54;;;;;;;4.43;0.67;;;;;;;5.69;100.00;100096.56;5075587;28;20460;-73
2024/01/02 02:57:22;;;;;;;1.70;0.40;;;;;;;5.62;100.00;100088.00;5075927;28;20465;-73
2024/01/02 02:59:49;;;;;;;2.57;0.77;;;;;;;5.59;99.76;100085.88;5075593;28;20449;-73
2024/01/02 03:02:16;;;;;;;1.80;0.70;;;;;;;5.48;100.00;100087.84;5075677;28;20487;-72
2024/01/02 03:04:43;;;;;;;1.50;0.30;;;;;;;5.43;100.00;100090.56;5075705;28;20461;-72
2024/01/02 03:07:10;;;;;;;1.60;0.40;;;;;;;5.39;100.00;100086.81;5075861;28;20430;-72
2024/01/02 03:09:36;;;;;;;2.13;0.67;;;;;;;5.35;100.00;100083.09;5076004;28;20528;-72
2024/01/02 03:12:04;;;;;;;2.00;0.80;;;;;;;5.35;100.00;100082.28;5075581;28;20538;-72
2024/01/02 03:14:32;;;;;;;2.13;0.60;;;;;;;5.26;100.00;100068.66;5075543;28;20465;-72
2024/01/02 03:16:58;;;;;;;2.00;0.70;;;;;;;5.22;100.00;100063.06;5075514;28;20937;-72
2024/01/02 03:19:25;;;;;;;2.47;0.83;;;;;;;5.16;100.00;100057.97;5075271;28;20471;-72
2024/01/02 03:21:51;;;;;;;1.60;0.40;;;;;;;5.08;100.00;100054.00;5075306;28;20580;-72
2024/01/02 03:24:18;;;;;;;2.30;0.53;;;;;;;5.06;100.00;100045.44;5074970;28;20545;-72
2024/01/02 03:26:45;;;;;;;2.60;1.20;;;;;;;5.08;100.00;100045.94;5075649;28;20437;-72
2024/01/02 03:29:11;;;;;;;1.70;0.50;;;;;;;5.13;100.00;100047.78;5074855;28;20887;-72
2024/01/02 03:31:39;;;;;;;4.90;0.50;;;;;;;5.15;100.00;100038.38;5075281;28;21028;-72
2024/01/02 03:34:06;;;;;;;2.33;0.60;;;;;;;5.11;100.00;100037.34;5074894;28;20533;-72
2024/01/02 03:36:32;;;;;;;1.67;0.47;;;;;;;5.15;100.00;100029.53;5075164;28;20540;-72
2024/01/02 03:38:59;;;;;;;4.17;1.07;;;;;;;5.12;100.00;100033.56;5075881;28;20524;-72
2024/01/02 03:41:26;;;;;;;1.67;0.50;;;;;;;5.09;100.00;100020.72;5075360;28;20575;-72
2024/01/02 03:43:52;;;;;;;1.50;0.30;;;;;;;5.10;100.00;100025.00;5074980;28;20467;-73
2024/01/02 03:46:19;;;;;;;1.60;0.30;;;;;;;5.10;100.00;100011.59;5075001;28;20528;-73
2024/01/02 03:48:47;;;;;;;2.20;0.70;;;;;;;5.12;100.00;100014.78;5074513;28;20955;-73
2024/01/02 03:51:14;;;;;;;3.93;0.60;;;;;;;5.13;100.00;100008.31;5074531;28;20978;-73
2024/01/02 03:53:40;;;;;;;2.13;0.60;;;;;;;5.15;100.00;100013.44;5074676;28;20447;-73
2024/01/02 03:56:07;;;;;;;1.70;0.50;;;;;;;5.13;100.00;100002.94;5075275;28;20494;-73
2024/01/02 04:01:02;;;;;;;1.60;0.47;;;;;;;5.12;100.00;99987.13;5053090;28;20986;-66
2024/01/02 04:03:28;;;;;;;1.60;0.40;;;;;;;5.13;100.00;99983.38;5054586;28;20489;-66
2024/01/02 04:05:56;;;;;;;2.20;0.80;;;;;;;5.10;100.00;99992.78;5054539;28;20458;-66
2024/01/02 04:08:23;;;;;;;1.50;0.30;;;;;;;5.09;100.00;99979.63;5054523;28;20474;-66
2024/01/02 04:10:49;;;;;;;1.70;0.60;;;;;;;5.06;100.00;99968.38;5054471;28;20462;-66
2024/01/02 04:13:16;;;;;;;1.60;0.40;;;;;;;5.06;100.00;99967.59;5054411;28;20514;-67
2024/01/02 04:15:43;;;;;;;2.17;0.80;;;;;;;5.04;100.00;99972.41;5054642;28;20916;-67
2024/01/02 04:18:09;;;;;;;1.60;0.40;;;;;;;5.03;100.00;99962.78;5054596;28;20449;-67
2024/01/02 04:20:36;;;;;;;1.60;0.40;;;;;;;4.98;100.00;99960.94;5054313;28;20521;-67
2024/01/02 04:23:04;;;;;;;1.57;0.30;;;;;;;4.94;100.00;99953.72;5054551;28;20517;-67
2024/01/02 04:25:31;;;;;;;1.83;0.50;;;;;;;4.87;100.00;99953.22;5054034;28;20958;-67
2024/01/02 04:27:58;;;;;;;1.60;0.40;;;;;;;4.82;100.00;99943.31;5054540;28;20521;-67
2024/01/02 04:30:24;;;;;;;1.50;0.30;;;;;;;4.82;100.00;99948.69;5054084;28;20525;-67
2024/01/02 04:32:51;;;;;;;1.70;0.40;;;;;;;4.76;100.00;99939.88;5054036;28;20517;-67
2024/01/02 04:35:18;;;;;;;1.60;0.40;;;;;;;4.81;100.00;99944.41;5053993;28;20534;-67
2024/01/02 04:37:45;;;;;;;2.13;0.77;;;;;;;4.79;100.00;99942.00;5054292;28;20512;-67
2024/01/02 04:40:13;;;;;;;2.00;0.83;;;;;;;4.75;100.00;99940.97;5053053;28;20564;-67
2024/01/02 04:42:40;;;;;;;1.60;0.40;;;;;;;4.68;100.00;99936.97;5053971;28;20525;-67
2024/01/02 04:45:08;;;;;;;1.53;0.30;;;;;;;4.71;100.00;99939.09;5053755;28;20542;-67
2024/01/02 04:47:35;;;;;;;1.60;0.50;;;;;;;4.63;100.00;99929.75;5053809;28;20492;-67
2024/01/02 04:50:04;;;;;;;1.87;0.50;;;;;;;4.60;100.00;99930.31;5054090;28;20443;-67
2024/01/02 04:52:30;;;;;;;1.70;0.53;;;;;;;4.55;100.00;99925.78;5053448;28;20442;-68
2024/01/02 04:54:58;;;;;;;1.83;0.60;;;;;;;4.57;100.00;99914.78;5053257;28;20477;-67
2024/01/02 04:57:26;;;;;;;1.60;0.30;;;;;;;4.60;100.00;99913.41;5053332;28;20525;-67
2024/01/02 04:59:52;;;;;;;1.77;0.67;;;;;;;4.59;100.00;99914.50;5053488;28;20454;-67
2024/01/02 05:02:22;;;;;;;6.33;1.33;;;;;;;4.65;100.00;99908.84;5054007;28;20522;-67
2024/01/02 05:04:49;;;;;;;1.90;0.60;;;;;;;4.68;100.00;99902.91;5053418;28;20466;-67
2024/01/02 05:07:16;;;;;;;2.53;0.73;;;;;;;4.70;100.00;99889.22;5053768;28;20438;-67
2024/01/02 05:09:42;;;;;;;1.70;0.40;;;;;;;4.73;100.00;99886.78;5053847;28;20530;-67
2024/01/02 05:12:09;;;;;;;1.60;0.40;;;;;;;4.75;100.00;99876.56;5053288;28;20525;-67
2024/01/02 05:14:37;;;;;;;1.60;0.40;;;;;;;4.80;100.00;99883.78;5053279;28;20469;-67
2024/01/02 05:17:04;;;;;;;1.70;0.53;;;;;;;4.78;100.00;99876.03;5053656;28;20807;-67
2024/01/02 05:19:31;;;;;;;2.13;0.50;;;;;;;4.77;100.00;99865.56;5053390;28;20446;-67
2024/01/02 05:21:58;;;;;;;1.53;0.30;;;;;;;4.80;100.00;99863.13;5053252;28;20509;-67
2024/01/02 05:24:24;;;;;;;1.60;0.40;;;;;;;4.74;100.00;99869.63;5053558;28;20977;-67
2024/01/02 05:26:51;;;;;;;1.80;0.57;;;;;;;4.80;100.00;99865.00;5053309;28;20476;-67
2024/01/02 05:29:18;;;;;;;2.20;0.60;;;;;;;4.85;100.00;99862.28;5053281;28;20442;-67
2024/01/02 05:31:46;;;;;;;1.53;0.33;;;;;;;4.87;100.00;99854.75;5053647;28;20484;-67
2024/01/02 05:34:13;;;;;;;1.83;0.83;;;;;;;4.88;100.00;99856.34;5053381;28;20788;-67
2024/01/02 05:36:39;;;;;;;1.57;0.40;;;;;;;4.87;100.00;99851.25;5053228;28;20923;-67
2024/01/02 05:39:08;;;;;;;1.90;0.50;;;;;;;4.84;100.00;99838.41;5053455;28;20558;-67
2024/01/02 05:41:34;;;;;;;2.47;0.70;;;;;;;4.85;100.00;99846.19;5053728;28;20482;-67
2024/01/02 05:44:01;;;;;;;2.43;0.50;;;;;;;4.85;100.00;99837.34;5052758;28;20466;-67
2024/01/02 05:46:27;;;;;;;3.20;1.33;;;;;;;4.84;100.00;99841.09;5052873;28;20442;-67
2024/01/02 05:48:55;;;;;;;1.63;0.50;;;;;;;4.80;100.00;99841.66;5053162;28;20518;-67
2024/01/02 05:51:22;;;;;;;1.60;0.43;;;;;;;4.81;100.00;99837.09;5055435;28;20525;-68
2024/01/02 05:53:49;;;;;;;1.60;0.40;;;;;;;4.80;100.00;99830.94;5057339;28;20524;-67
2024/01/02 05:56:17;;;;;;;1.93;0.50;;;;;;;4.84;100.00;99825.81;5057211;28;20442;-67
2024/01/02 05:58:43;;;;;;;2.23;0.73;;;;;;;4.90;100.00;99823.88;5056536;28;20934;-66
2024/01/02 06:01:10;;;;;;;1.70;0.50;;;;;;;4.86;100.00;99817.47;5056922;28;20450;-67
2024/01/02 06:03:37;;;;;;;1.60;0.30;;;;;;;4.87;100.00;99813.69;5057020;28;20517;-67
2024/01/02 06:06:06;;;;;;;1.60;0.40;;;;;;;4.84;100.00;99811.59;5056815;28;20852;-67
2024/01/02 06:08:33;;;;;;;2.00;0.43;;;;;;;4.85;100.00;99802.47;5056753;28;20472;-67
2024/01/02 06:11:00;;;;;;;1.90;0.80;;;;;;;4.93;100.00;99796.47;5056746;28;20442;-67
2024/01/02 06:13:26;;;;;;;1.60;0.40;;;;;;;4.98;100.00;99788.38;5056322;28;20442;-67
2024/01/02 06:15:53;;;;;;;5.67;1.53;;;;;;;5.01;100.00;99782.44;5056931;28;20458;-67
2024/01/02 06:18:20;;;;;;;1.80;0.50;;;;;;;5.04;100.00;99781.88;5056895;28;20532;-67
2024/01/02 06:20:46;;;;;;;1.70;0.50;;;;;;;5.00;100.00;99781.66;5056172;28;20538;-67
2024/01/02 06:23:14;;;;;;;1.70;0.50;;;;;;;5.04;100.00;99771.13;5056713;28;20571;-67
2024/01/02 06:25:41;;;;;;;2.37;0.60;;;;;;;5.09;100.00;99779.16;5056632;28;20473;-67
2024/01/02 06:28:08;;;;;;;1.60;0.40;;;;;;;5.05;100.00;99772.75;5056246;28;20453;-67
2024/01/02 06:30:34;;;;;;;1.70;0.50;;;;;;;5.10;100.00;99763.84;5056535;28;20814;-67
2024/01/02 06:33:01;;;;;;;1.70;0.50;;;;;;;5.13;100.00;99761.38;5056393;28;20517;-67
2024/01/02 06:35:27;;;;;;;4.50;0.70;;;;;;;5.14;100.00;99754.16;5056751;28;20458;-68
2024/01/02 06:37:54;;;;;;;1.70;0.47;;;;;;;5.14;100.00;99757.63;5056531;28;20470;-68
2024/01/02 06:40:22;;;;;;;1.90;0.40;;;;;;;5.11;100.00;99755.50;5056187;28;20969;-68
2024/01/02 06:42:49;;;;;;;1.60;0.40;;;;;;;5.12;100.00;99754.41;5055741;28;21006;-68
2024/01/02 06:45:15;;;;;;;1.80;0.47;;;;;;;5.16;100.00;99755.44;5055984;28;20545;-68
2024/01/02 06:47:42;;;;;;;1.70;0.50;;;;;;;5.17;100.00;99742.81;5055999;28;20533;-69
2024/01/02 06:50:09;;;;;;;3.20;1.03;;;;;;;5.20;100.00;99759.16;5055943;28;20486;-68
2024/01/02 06:52:35;;;;;;;1.80;0.50;;;;;;;5.27;100.00;99756.16;5055643;28;20525;-68
2024/01/02 06:55:04;;;;;;;2.83;0.63;;;;;;;5.28;100.00;99757.72;5055975;28;20541;-68
2024/01/02 06:57:32;;;;;;;1.70;0.60;;;;;;;5.29;100.00;99754.75;5056182;28;20523;-68
2024/01/02 06:59:59;;;;;;;2.33;1.07;;;;;;;5.24;100.00;99754.81;5055547;28;20545;-68
2024/01/02 07:02:25;;;;;;;1.60;0.40;;;;;;;5.27;100.00;99745.41;5054561;28;20493;-68
2024/01/02 07:04:52;;;;;;;1.50;0.30;;;;;;;5.25;100.00;99747.56;5055953;28;20466;-69
2024/01/02 07:07:18;;;;;;;1.60;0.40;;;;;;;5.28;100.00;99739.75;5055973;28;20510;-68
2024/01/02 07:09:45;;;;;;;1.80;0.67;;;;;;;5.20;100.00;99732.31;5056022;28;20447;-69
2024/01/02 07:12:12;;;;;;;1.60;0.40;;;;;;;5.25;100.00;99732.25;5055267;28;20931;-69
2024/01/02 07:14:41;;;;;;;1.60;0.40;;;;;;;5.26;100.00;99731.16;5055655;28;20466;-69
2024/01/02 07:17:08;;;;;;;2.47;0.80;;;;;;;5.24;100.00;99730.66;5055909;28;20446;-69
2024/01/02 07:19:34;;;;;;;1.80;0.50;;;;;;;5.22;100.00;99722.09;5056102;28;20442;-68
2024/01/02 07:22:01;;;;;;;1.60;0.43;;;;;;;5.20;100.00;99720.78;5054998;28;20445;-68
2024/01/02 07:24:31;;;;;;;2.27;0.60;;;;;;;5.18;100.00;99712.19;5055285;28;20549;-68
2024/01/02 07:26:57;;;;;;;1.60;0.40;;;;;;;5.23;100.00;99699.53;5055305;28;20537;-69
2024/01/02 07:29:24;;;;;;;3.20;0.97;;;;;;;5.27;100.00;99705.94;5055629;28;20569;-69
2024/01/02 07:31:52;;;;;;;2.20;0.80;;;;;;;5.25;100.00;99700.03;5055220;28;20454;-69
2024/01/02 07:34:18;;;;;;;2.07;0.40;;;;;;;5.27;100.00;99692.50;5055208;28;20472;-68
2024/01/02 07:36:45;;;;;;;2.63;1.20;;;;;;;5.29;100.00;99687.63;5055482;28;20529;-69
2024/01/02 07:39:12;;;;;;;1.60;0.40;;;;;;;5.37;100.00;99693.47;5055493;28;20468;-69
2024/01/02 07:41:38;;;;;;;2.23;0.50;;;;;;;5.43;100.00;99676.19;5055316;28;20438;-69
2024/01/02 07:44:06;;;;;;;2.33;0.70;;;;;;;5.44;100.00;99669.72;5055119;28;20536;-69
2024/01/02 07:46:33;;;;;;;1.60;0.40;;;;;;;5.47;100.00;99671.84;5055012;28;20508;-69
2024/01/02 07:49:01;;;;;;;2.37;0.50;;;;;;;5.47;100.00;99667.25;5055212;28;20485;-70
2024/01/02 07:51:28;;;;;;;1.57;0.33;;;;;;;5.52;100.00;99658.34;5054861;28;20493;-70
2024/01/02 07:53:55;;;;;;;2.87;0.90;;;;;;;5.55;100.00;99655.06;5054738;28;20458;-69
2024/01/02 07:56:22;;;;;;;1.70;0.40;;;;;;;5.60;100.00;99649.63;5055175;28;20438;-69
2024/01/02 07:58:49;;;;;;;3.70;0.70;;;;;;;5.66;100.00;99650.34;5054952;28;20435;-70
2024/01/02 08:01:17;;;;;;;3.50;0.93;;;;;;;5.61;100.00;99645.84;5054265;28;20423;-72
2024/01/02 08:03:44;;;;;;;1.70;0.40;;;;;;;5.67;100.00;99633.94;5054341;28;20937;-72
2024/01/02 08:06:13;;;;;;;2.20;0.60;;;;;;;5.68;100.00;99640.91;5054562;28;20530;-71
2024/01/02 08:08:39;;;;;;;1.60;0.50;;;;;;;5.69;100.00;99637.13;5054523;28;20918;-71
2024/01/02 08:11:08;;;;;;;1.60;0.40;;;;;;;5.66;100.00;99624.28;5054433;28;20791;-72
2024/01/02 08:13:34;;;;;;;1.57;0.40;;;;;;;5.67;100.00;99628.56;5054467;28;20447;-72
2024/01/02 08:16:03;;;;;;;1.90;0.90;;;;;;;5.64;100.00;99634.53;5054711;28;20438;-71
2024/01/02 08:18:30;;;;;;;1.60;0.40;;;;;;;5.64;100.00;99629.16;5054299;28;20525;-70
2024/01/02 08:20:56;;;;;;;2.00;0.60;;;;;;;5.65;100.00;99620.00;5054626;28;20438;-70
2024/01/02 08:23:25;;;;;;;2.93;0.60;;;;;;;5.65;100.00;99617.31;5054110;28;20478;-70
2024/01/02 08:25:51;;;;;;;2.03;0.53;;;;;;;5.70;100.00;99611.84;5054425;28;20462;-71
2024/01/02 08:28:18;;;;;;;2.10;0.70;;;;;;;5.76;100.00;99608.00;5054317;28;20450;-71
2024/01/02 08:30:45;;;;;;;1.90;0.77;;;;;;;5.78;100.00;99610.41;5053827;28;20926;-72
2024/01/02 08:33:12;;;;;;;11.50;0.80;;;;;;;5.76;100.00;99599.97;5053690;28;20477;-71
2024/01/02 08:35:38;;;;;;;2.73;0.90;;;;;;;5.78;100.00;99600.44;5054250;28;20549;-71
2024/01/02 08:38:05;;;;;;;2.00;0.60;;;;;;;5.82;100.00;99596.09;5053615;28;20986;-71
2024/01/02 08:40:33;;;;;;;1.57;0.37;;;;;;;5.90;100.00;99591.16;5053591;28;20474;-71
2024/01/02 08:42:59;;;;;;;3.13;0.83;;;;;;;5.90;100.00;99600.00;5053475;28;20958;-71
2024/01/02 08:45:26;;;;;;;2.37;0.87;;;;;;;5.91;100.00;99581.97;5053497;28;21044;-71
2024/01/02 08:47:53;;;;;;;3.63;0.97;;;;;;;5.91;100.00;99579.28;5054178;28;20434;-71
2024/01/02 08:50:19;;;;;;;2.00;0.70;;;;;;;5.97;100.00;99578.13;5053453;28;20885;-71
2024/01/02 08:52:47;;;;;;;2.27;1.00;;;;;;;5.90;100.00;99572.34;5053409;28;20956;-72
2024/01/02 08:55:14;;;;;;;1.70;0.40;;;;;;;5.89;100.00;99576.09;5053675;28;20826;-71
2024/01/02 08:57:43;;;;;;;1.77;0.50;;;;;;;5.89;100.00;99565.34;5053331;28;20492;-71
2024/01/02 09:00:14;;;;;;;1.50;0.40;;;;;;;5.90;100.00;99556.22;5053310;28;20537;-71
2024/01/02 09:02:41;;;;;;;1.70;0.50;;;;;;;5.88;100.00;99559.16;5053816;28;20554;-71
2024/01/02 09:05:09;;;;;;;3.60;0.80;;;;;;;5.86;100.00;99561.38;5053122;28;20550;-71
2024/01/02 09:07:36;;;;;;;1.60;0.40;;;;;;;5.92;100.00;99564.78;5054113;28;20525;-71
2024/01/02 09:10:02;;;;;;;2.77;0.80;;;;;;;5.88;100.00;99553.00;5053401;28;20496;-71
2024/01/02 09:12:30;;;;;;;3.10;0.87;;;;;;;5.88;100.00;99540.34;5053065;28;20453;-71
2024/01/02 09:14:58;;;;;;;1.90;0.60;;;;;;;5.88;100.00;99547.63;5053357;28;20470;-71
2024/01/02 09:17:24;;;;;;;1.80;0.50;;;;;;;5.87;100.00;99540.66;5053076;28;20453;-71
2024/01/02 09:19:51;;;;;;;1.70;0.50;;;;;;;5.87;100.00;99536.09;5054084;28;20500;-71
2024/01/02 09:22:17;;;;;;;1.83;0.53;;;;;;;5.86;100.00;99537.19;5053045;28;20442;-70
2024/01/02 09:24:46;;;;;;;1.80;0.50;;;;;;;5.82;100.00;99539.66;5054512;28;20485;-70
2024/01/02 09:27:14;;;;;;;2.60;0.70;;;;;;;5.77;100.00;99542.44;5060101;28;20448;-70
2024/01/02 09:29:41;;;;;;;2.10;0.50;;;;;;;5.73;100.00;99530.69;5060282;28;20469;-70
2024/01/02 09:32:10;;;;;;;1.87;0.50;;;;;;;5.71;100.00;99521.31;5060049;28;20500;-70
2024/01/02 09:34:37;;;;;;;1.90;0.43;;;;;;;5.71;100.00;99530.19;5059533;28;20511;-70
2024/01/02 09:37:06;;;;;;;1.60;0.40;;;;;;;5.75;100.00;99531.16;5060279;28;20521;-70
2024/01/02 09:39:32;;;;;;;2.23;0.50;;;;;;;5.65;100.00;99517.91;5059846;28;20446;-70
2024/01/02 09:42:32;;;;;;;2.00;0.80;;;;;;;5.67;100.00;99510.38;5059624;28;20448;-70
2024/01/02 09:45:03;;;;;;;1.60;0.40;;;;;;;5.67;100.00;99506.91;5059813;28;21052;-70
2024/01/02 09:47:51;;;;;;;1.60;0.40;;;;;;;5.65;100.00;99495.63;5060352;28;20433;-70
2024/01/02 09:50:22;;;;;;;1.60;0.40;;;;;;;5.66;100.00;99489.94;5059613;28;20449;-70
2024/01/02 09:53:12;;;;;;;2.00;0.90;;;;;;;5.62;100.00;99488.94;5059913;28;20461;-70
2024/01/02 09:55:46;;;;;;;2.33;0.80;;;;;;;5.63;100.00;99482.50;5059688;28;20490;-70
2024/01/02 10:01:07;;;;;;;1.50;0.30;;;;;;;5.71;100.00;99463.03;5037794;28;20470;-64
2024/01/02 10:04:10;;;;;;;1.50;0.30;;;;;;;5.73;100.00;99455.44;5039308;28;20506;-64
2024/01/02 10:06:55;;;;;;;2.10;0.60;;;;;;;5.75;100.00;99452.47;5040137;28;20447;-64
2024/01/02 10:09:35;;;;;;;1.93;0.60;;;;;;;5.74;100.00;99454.34;5039780;28;20419;-64
2024/01/02 10:12:13;;;;;;;1.60;0.40;;;;;;;5.76;100.00;99440.66;5039493;28;20423;-64
2024/01/02 10:14:49;;;;;;;1.80;0.70;;;;;;;5.73;100.00;99452.75;5039841;28;20494;-64
2024/01/02 10:17:25;;;;;;;1.70;0.53;;;;;;;5.77;100.00;99447.59;5039728;28;20522;-64
2024/01/02 10:20:06;;;;;;;1.93;0.57;;;;;;;5.80;100.00;99436.28;5039949;28;20464;-65
2024/01/02 10:22:41;;;;;;;1.83;0.60;;;;;;;5.83;100.00;99441.03;5039983;28;20758;-64
2024/01/02 10:25:11;;;;;;;3.97;0.60;;;;;;;5.86;100.00;99435.06;5039637;28;20525;-64
2024/01/02 10:27:46;;;;;;;1.70;0.40;;;;;;;5.87;100.00;99428.59;5039525;28;20438;-64
2024/01/02 10:30:18;;;;;;;1.60;0.47;;;;;;;5.87;100.00;99414.38;5039568;28;20454;-62
2024/01/02 10:32:50;;;;;;;1.90;0.77;;;;;;;5.90;100.00;99405.72;5039141;28;20903;-64
2024/01/02 10:35:22;;;;;;;2.00;0.50;;;;;;;5.83;100.00;99398.03;5039762;28;20459;-64
2024/01/02 10:38:03;;;;;;;1.70;0.50;;;;;;;5.85;100.00;99384.31;5037346;28;20836;-63
2024/01/02 10:40:30;;;;;;;1.90;0.50;;;;;;;5.88;100.00;99381.00;5036674;28;20423;-63
2024/01/02 10:43:12;;;;;;;3.73;1.10;;;;;;;5.88;100.00;99370.28;5036503;28;20467;-63
2024/01/02 10:45:47;;;;;;;1.77;0.73;;;;;;;5.94;100.00;99355.69;5036193;28;20972;-63
2024/01/02 10:48:33;;;;;;;1.87;0.57;;;;;;;5.91;100.00;99364.31;5036187;28;20513;-63
2024/01/02 10:51:05;;;;;;;1.60;0.50;;;;;;;5.88;100.00;99360.31;5036525;28;20411;-63
2024/01/02 10:53:39;;;;;;;1.50;0.30;;;;;;;5.93;100.00;99346.00;5036112;28;20514;-64
2024/01/02 10:56:13;;;;;;;2.83;1.20;;;;;;;5.96;100.00;99342.72;5035999;28;20431;-63
2024/01/02 10:58:56;;;;;;;1.90;0.63;;;;;;;5.99;100.00;99334.88;5035912;28;20419;-63
2024/01/02 11:01:26;;;;;;;1.60;0.50;;;;;;;6.00;100.00;99324.91;5035585;28;20434;-63
2024/01/02 11:03:58;;;;;;;1.67;0.50;;;;;;;5.89;100.00;99316.25;5035628;28;20523;-63
2024/01/02 11:06:34;;;;;;;1.87;0.50;;;;;;;5.95;100.00;99316.97;5035543;28;20462;-63
2024/01/02 11:09:06;;;;;;;2.57;0.80;;;;;;;5.91;100.00;99294.44;5035858;28;20794;-63
2024/01/02 11:11:37;;;;;;;2.03;0.70;;;;;;;6.00;100.00;99287.28;5036108;28;20431;-63
2024/01/02 11:14:06;;;;;;;1.80;0.60;;;;;;;6.09;100.00;99285.47;5035551;28;20465;-62
2024/01/02 11:16:35;;;;;;;6.00;1.43;;;;;;;6.15;100.00;99278.84;5035458;28;20442;-62
2024/01/02 11:19:04;;;;;;;1.70;0.50;;;;;;;6.16;100.00;99279.69;5035532;28;20807;-62
2024/01/02 11:21:40;;;;;;;1.87;0.77;;;;;;;6.17;100.00;99282.06;5035552;28;20600;-62
2024/01/02 11:24:09;;;;;;;2.50;0.90;;;;;;;6.21;100.00;99288.41;5035451;28;21069;-65
2024/01/02 11:26:40;;;;;;;3.00;1.27;;;;;;;6.24;100.00;99271.69;5034946;28;20776;-66
2024/01/02 11:29:11;;;;;;;2.13;0.83;;;;;;;6.27;100.00;99272.97;5035431;28;20423;-64
2024/01/02 11:31:40;;;;;;;1.57;0.47;;;;;;;6.25;100.00;99267.88;5036028;28;20419;-66
2024/01/02 11:34:20;;;;;;;2.33;1.00;;;;;;;6.29;100.00;99260.00;5035299;28;20462;-64
2024/01/02 11:37:02;;;;;;;1.90;0.77;;;;;;;6.30;100.00;99256.22;5035302;28;20959;-63
2024/01/02 11:39:37;;;;;;;2.10;0.67;;;;;;;6.30;100.00;99254.31;5034849;28;20907;-63
2024/01/02 11:42:11;;;;;;;2.07;0.70;;;;;;;6.32;100.00;99245.94;5034961;28;20423;-63